Time;durP1;ratioP1;P1;durP2;ratioP2;P2;SDS_P1;SDS_P2;PMS_P1;PMS_P2;Temp;Humidity;BMP_temperature;BMP_pressure;BME280_temperature;BME280_humidity;BME280_pressure;Samples;Min_cycle;Max_cycle;Signal;HPM_P1;HPM_P2
2022/05/11 00:04:20;;;;;;;7.75;5.28;;;21.90;64.40;;;;;;10945544;32;20041;-76
2022/05/11 00:10:24;;;;;;;8.82;6.00;;;21.90;64.70;;;;;;10945354;32;20088;-75
2022/05/11 00:16:27;;;;;;;9.60;6.78;;;21.80;64.90;;;;;;10945039;32;20023;-75
2022/05/11 00:22:29;;;;;;;10.98;6.97;;;21.80;64.90;;;;;;10944836;32;20023;-75
2022/05/11 00:28:32;;;;;;;11.48;8.05;;;21.70;65.10;;;;;;10944713;32;20058;-75
2022/05/11 00:34:34;;;;;;;9.90;7.62;;;21.70;65.30;;;;;;10944211;32;20049;-75
2022/05/11 00:40:45;;;;;;;9.32;5.75;;;21.60;65.40;;;;;;10944392;32;20027;-75
2022/05/11 00:46:59;;;;;;;10.27;6.93;;;21.50;66.20;;;;;;10944030;32;20375;-75
2022/05/11 00:53:11;;;;;;;7.55;6.40;;;21.50;66.70;;;;;;10930036;32;20026;-75
2022/05/11 00:59:21;;;;;;;8.43;6.53;;;21.50;66.50;;;;;;10940730;32;20020;-75
2022/05/11 01:05:23;;;;;;;8.18;6.10;;;21.40;66.80;;;;;;10943364;32;20023;-75
2022/05/11 01:11:25;;;;;;;6.87;5.10;;;21.30;67.40;;;;;;10943091;32;20413;-74
2022/05/11 01:17:28;;;;;;;9.57;7.93;;;21.30;68.00;;;;;;10939370;32;20049;-75
2022/05/11 01:24:02;;;;;;;7.97;6.82;;;21.30;68.50;;;;;;10942595;32;20058;-76
2022/05/11 01:30:22;;;;;;;7.60;5.90;;;21.10;68.30;;;;;;10938316;32;20019;-75
2022/05/11 01:36:34;;;;;;;9.65;6.25;;;20.90;68.60;;;;;;10942481;32;20003;-75
2022/05/11 01:42:36;;;;;;;11.12;7.93;;;20.90;69.30;;;;;;10942300;32;20023;-75
2022/05/11 01:48:45;;;;;;;9.50;6.95;;;20.90;69.30;;;;;;10928862;32;20346;-75
2022/05/11 01:54:47;;;;;;;8.85;7.40;;;20.80;69.20;;;;;;10940344;32;20049;-75
2022/05/11 02:00:49;;;;;;;14.50;8.80;;;20.70;69.20;;;;;;10941965;32;20011;-75
2022/05/11 02:13:13;;;;;;;10.80;7.82;;;20.80;69.40;;;;;;10949428;32;20055;-75
2022/05/11 02:19:24;;;;;;;12.75;8.02;;;20.80;69.70;;;;;;10949204;32;20422;-75
2022/05/11 02:25:26;;;;;;;10.23;8.55;;;20.70;69.50;;;;;;10935772;32;20038;-75
2022/05/11 02:31:28;;;;;;;12.75;8.00;;;20.70;69.80;;;;;;10948824;32;20445;-76
2022/05/11 02:37:30;;;;;;;8.98;7.12;;;20.70;70.20;;;;;;10948667;32;20015;-75
2022/05/11 02:43:32;;;;;;;10.50;7.55;;;20.60;70.30;;;;;;10934985;32;20081;-75
2022/05/11 02:49:34;;;;;;;14.15;9.88;;;20.50;70.20;;;;;;10948134;32;20421;-75
2022/05/11 02:55:44;;;;;;;9.15;6.90;;;20.40;70.40;;;;;;10948077;32;20018;-75
2022/05/11 03:01:49;;;;;;;9.55;6.40;;;20.30;70.30;;;;;;10947755;32;20019;-75
2022/05/11 03:07:51;;;;;;;8.43;6.68;;;20.20;70.40;;;;;;10934144;32;20387;-75
2022/05/11 03:13:53;;;;;;;10.07;8.27;;;20.20;70.40;;;;;;10933612;32;20023;-76
2022/05/11 03:19:56;;;;;;;10.02;6.87;;;20.20;70.60;;;;;;10947154;32;20023;-76
2022/05/11 03:25:58;;;;;;;10.25;6.62;;;20.20;70.60;;;;;;10946977;32;20011;-75
2022/05/11 03:38:53;;;;;;;9.13;6.70;;;19.80;70.90;;;;;;10758013;33;20446;-75
2022/05/11 03:44:55;;;;;;;11.52;7.53;;;19.80;70.90;;;;;;10756504;33;20335;-75
2022/05/11 03:50:57;;;;;;;10.02;7.70;;;19.80;71.20;;;;;;10756311;33;20059;-75
2022/05/11 03:56:59;;;;;;;12.10;9.45;;;19.80;71.10;;;;;;10757250;33;20306;-76
2022/05/11 04:03:02;;;;;;;12.30;7.87;;;19.80;71.40;;;;;;10756974;33;20079;-76
2022/05/11 04:09:04;;;;;;;12.98;10.07;;;19.80;71.20;;;;;;10756746;33;20331;-75
2022/05/11 04:15:07;;;;;;;11.52;8.60;;;19.90;71.10;;;;;;10897064;32;20022;-76
2022/05/11 04:21:10;;;;;;;10.52;7.43;;;19.80;71.00;;;;;;10944996;32;20015;-76
2022/05/11 04:27:13;;;;;;;13.62;8.50;;;19.80;71.10;;;;;;10944204;32;20069;-75
2022/05/11 04:33:19;;;;;;;10.63;9.52;;;19.80;71.30;;;;;;10944327;32;20417;-76
2022/05/11 04:39:21;;;;;;;14.57;8.23;;;19.80;71.10;;;;;;10944228;32;20089;-76
2022/05/11 04:45:37;;;;;;;12.80;10.65;;;19.80;71.40;;;;;;10944070;32;20068;-76
2022/05/11 04:51:39;;;;;;;11.98;9.63;;;19.80;71.30;;;;;;10943836;32;20042;-76
2022/05/11 04:57:42;;;;;;;12.13;9.43;;;19.80;71.20;;;;;;10943569;32;20027;-76
2022/05/11 05:03:44;;;;;;;13.65;8.50;;;19.90;71.10;;;;;;10943468;32;20343;-75
2022/05/11 05:10:08;;;;;;;13.70;9.55;;;19.90;71.20;;;;;;10943106;32;20049;-76
2022/05/11 05:16:16;;;;;;;17.40;9.95;;;19.90;71.50;;;;;;10942908;32;20023;-76
2022/05/11 05:22:43;;;;;;;10.03;7.80;;;20.10;71.40;;;;;;10939355;32;20023;-76
2022/05/11 05:36:05;;;;;;;15.23;10.45;;;20.10;71.90;;;;;;10941991;32;20031;-76
2022/05/11 05:42:09;;;;;;;13.07;8.82;;;20.20;72.00;;;;;;10942147;32;20046;-75
2022/05/11 05:49:31;;;;;;;16.12;9.10;;;20.20;72.20;;;;;;10916042;32;20023;-75
2022/05/11 05:56:17;;;;;;;14.45;9.82;;;20.30;72.10;;;;;;10779867;33;20036;-75
2022/05/11 06:02:19;;;;;;;18.37;11.95;;;20.30;72.10;;;;;;10789274;33;20051;-72
2022/05/11 06:08:23;;;;;;;12.13;9.15;;;20.40;71.90;;;;;;10788250;33;20145;-72
2022/05/11 06:14:26;;;;;;;13.00;9.95;;;20.50;71.80;;;;;;10790913;27;20036;-72
2022/05/11 06:20:28;;;;;;;13.38;8.05;;;20.70;71.50;;;;;;10789214;33;20028;-70
2022/05/11 06:26:30;;;;;;;18.75;11.43;;;20.80;71.40;;;;;;10789060;33;20052;-70
2022/05/11 06:32:32;;;;;;;10.40;8.02;;;21.00;71.20;;;;;;10846883;32;20408;-70
2022/05/11 06:38:35;;;;;;;11.63;7.43;;;21.10;71.00;;;;;;10861936;32;20035;-70
2022/05/11 06:44:38;;;;;;;13.13;9.70;;;21.30;70.70;;;;;;10871234;32;20525;-70
2022/05/11 06:50:43;;;;;;;10.73;8.10;;;21.30;70.50;;;;;;10887634;32;20050;-69
2022/05/11 07:03:06;;;;;;;8.02;6.40;;;21.50;70.10;;;;;;10872740;32;20020;-71
2022/05/11 07:09:09;;;;;;;11.77;8.82;;;21.50;69.90;;;;;;10872662;32;20042;-71
2022/05/11 07:15:12;;;;;;;15.95;9.60;;;21.70;70.00;;;;;;10871446;32;20399;-70
2022/05/11 07:21:14;;;;;;;12.20;9.45;;;21.80;69.90;;;;;;10872173;32;20032;-71
2022/05/11 07:27:18;;;;;;;14.50;6.87;;;21.80;69.50;;;;;;10872115;32;20015;-71
2022/05/11 07:33:21;;;;;;;8.25;6.07;;;21.90;69.30;;;;;;10867892;32;20031;-70
2022/05/11 07:39:24;;;;;;;7.78;5.00;;;22.10;69.20;;;;;;10870808;32;20016;-70
2022/05/11 07:45:26;;;;;;;9.82;7.50;;;22.20;68.80;;;;;;10869349;32;20050;-71
2022/05/11 07:51:29;;;;;;;9.50;6.70;;;22.30;68.20;;;;;;10896204;32;20027;-71
2022/05/11 08:03:52;;;;;;;9.15;6.87;;;22.40;67.80;;;;;;10903480;32;20054;-74
2022/05/11 08:09:59;;;;;;;8.90;6.50;;;22.50;67.10;;;;;;10907488;32;20031;-72
2022/05/11 08:16:02;;;;;;;12.02;9.15;;;22.60;66.90;;;;;;10907257;32;20024;-72
2022/05/11 08:22:05;;;;;;;16.00;9.88;;;22.80;66.50;;;;;;10903491;32;20023;-72
2022/05/11 08:28:17;;;;;;;12.20;7.50;;;22.80;66.00;;;;;;10906871;32;20023;-74
2022/05/11 08:34:19;;;;;;;11.63;7.03;;;22.90;65.20;;;;;;10893844;32;20047;-74
2022/05/11 08:40:52;;;;;;;11.55;6.68;;;23.00;65.00;;;;;;10903990;32;20031;-75
2022/05/11 08:47:14;;;;;;;10.35;7.50;;;23.20;64.60;;;;;;10750000;33;20037;-73
2022/05/11 08:53:35;;;;;;;10.07;6.12;;;23.30;64.30;;;;;;10746486;33;20064;-74
2022/05/11 08:59:38;;;;;;;7.95;5.10;;;23.50;63.90;;;;;;10752438;33;20032;-74
2022/05/11 09:05:40;;;;;;;14.13;6.72;;;23.60;63.60;;;;;;10749247;33;20029;-74
2022/05/11 09:11:49;;;;;;;9.50;6.55;;;23.80;62.90;;;;;;10739901;33;20116;-74
2022/05/11 09:18:05;;;;;;;11.60;6.25;;;23.90;62.70;;;;;;10744150;33;20336;-75
2022/05/11 09:24:33;;;;;;;8.73;5.97;;;24.10;62.30;;;;;;10859856;32;20031;-74
2022/05/11 09:30:35;;;;;;;11.88;6.37;;;24.20;61.60;;;;;;10750355;33;20037;-73
2022/05/11 09:36:54;;;;;;;20.20;7.68;;;24.30;61.40;;;;;;10752520;33;20063;-74
2022/05/11 09:43:03;;;;;;;7.70;5.03;;;24.50;60.10;;;;;;10751555;33;20035;-75
2022/05/11 09:49:26;;;;;;;9.25;5.93;;;24.60;59.90;;;;;;10753381;33;20025;-73
2022/05/11 09:55:31;;;;;;;9.48;4.93;;;24.70;58.70;;;;;;10748730;33;20345;-74
2022/05/11 10:01:33;;;;;;;18.75;7.18;;;24.90;58.70;;;;;;10752214;33;20067;-73
2022/05/11 10:07:37;;;;;;;9.88;5.55;;;25.00;58.30;;;;;;10823286;32;20027;-75
2022/05/11 10:14:02;;;;;;;12.32;6.82;;;25.20;58.20;;;;;;10866652;32;20306;-74
2022/05/11 10:27:07;;;;;;;9.98;4.95;;;25.50;56.50;;;;;;10868153;32;20019;-72
2022/05/11 10:33:32;;;;;;;10.82;6.53;;;25.70;56.00;;;;;;10873932;32;20062;-74
2022/05/11 10:39:58;;;;;;;13.43;8.98;;;25.80;53.70;;;;;;10873604;32;20042;-73
2022/05/11 10:46:13;;;;;;;11.93;8.55;;;25.90;54.30;;;;;;10856764;32;20046;-73
2022/05/11 10:52:26;;;;;;;7.25;5.25;;;26.20;54.00;;;;;;10873064;32;20050;-74
2022/05/11 10:59:07;;;;;;;7.45;5.65;;;26.30;53.60;;;;;;10872725;32;20372;-74
2022/05/11 11:05:28;;;;;;;15.85;6.50;;;26.70;53.40;;;;;;10859519;32;20023;-76
2022/05/11 11:11:50;;;;;;;11.00;6.68;;;27.00;52.80;;;;;;10871405;32;20016;-75
2022/05/11 11:17:54;;;;;;;14.90;6.37;;;27.30;52.70;;;;;;10905256;32;20069;-75
2022/05/11 11:24:17;;;;;;;9.07;5.57;;;27.70;52.10;;;;;;10907891;32;20034;-75
2022/05/11 11:30:23;;;;;;;8.15;5.57;;;27.90;51.80;;;;;;10895864;32;20052;-72
2022/05/11 11:36:31;;;;;;;15.70;8.13;;;28.10;50.70;;;;;;10909025;32;20023;-75
2022/05/11 11:42:42;;;;;;;12.07;4.82;;;28.10;50.20;;;;;;10909236;32;20398;-76
2022/05/11 11:48:45;;;;;;;14.82;7.18;;;28.30;49.60;;;;;;10908738;32;20023;-75
2022/05/11 11:54:49;;;;;;;7.45;4.87;;;28.40;49.30;;;;;;10908645;32;20027;-76
2022/05/11 12:00:59;;;;;;;11.35;6.70;;;28.50;49.30;;;;;;10908171;32;20308;-75
2022/05/11 12:20:17;;;;;;;13.05;6.12;;;28.90;47.80;;;;;;10907685;32;20031;-74
2022/05/11 12:26:34;;;;;;;12.40;5.60;;;28.80;47.50;;;;;;10907335;32;20204;-76
2022/05/11 12:33:02;;;;;;;7.40;4.75;;;28.80;46.90;;;;;;10907065;32;20301;-73
2022/05/11 12:39:07;;;;;;;9.05;5.00;;;28.70;47.10;;;;;;10905315;32;20317;-74
2022/05/11 12:45:15;;;;;;;7.50;4.07;;;28.80;47.00;;;;;;10890848;32;20039;-76
2022/05/11 12:51:23;;;;;;;7.13;4.20;;;28.80;47.10;;;;;;10905981;32;20061;-77
2022/05/11 12:57:38;;;;;;;20.80;5.90;;;28.80;46.90;;;;;;10906410;32;20027;-73
2022/05/11 13:03:45;;;;;;;7.18;4.30;;;28.60;46.30;;;;;;10906352;32;20402;-75
2022/05/11 13:09:52;;;;;;;9.60;4.95;;;28.60;46.50;;;;;;10902211;32;20023;-75
2022/05/11 13:16:14;;;;;;;6.43;4.18;;;28.60;46.20;;;;;;10905481;32;20035;-75
2022/05/11 13:22:24;;;;;;;5.05;3.28;;;28.60;46.20;;;;;;10892592;32;20315;-76
2022/05/11 13:28:30;;;;;;;10.70;4.60;;;28.80;45.90;;;;;;10881022;32;20059;-76
2022/05/11 13:34:46;;;;;;;6.62;3.78;;;28.80;45.70;;;;;;10900808;32;20015;-73
2022/05/11 13:40:54;;;;;;;9.35;3.55;;;28.80;45.80;;;;;;10904410;32;20031;-69
2022/05/11 13:53:34;;;;;;;7.05;5.12;;;28.80;45.50;;;;;;10866343;32;20050;-69
2022/05/11 13:59:45;;;;;;;5.62;3.42;;;28.90;45.30;;;;;;10864587;32;20031;-70
2022/05/11 14:05:49;;;;;;;5.55;3.15;;;28.90;45.30;;;;;;10866311;32;20031;-69
2022/05/11 14:11:52;;;;;;;8.02;3.55;;;28.90;45.40;;;;;;10883372;27;20030;-70
2022/05/11 14:17:54;;;;;;;7.20;3.22;;;29.00;45.30;;;;;;10926504;32;20035;-70
2022/05/11 14:23:56;;;;;;;7.72;3.05;;;29.10;45.00;;;;;;10941305;32;20061;-70
2022/05/11 14:29:58;;;;;;;10.20;4.85;;;29.10;44.50;;;;;;10941320;32;20023;-69
2022/05/11 14:36:01;;;;;;;8.52;5.62;;;29.10;45.00;;;;;;10940834;32;20343;-70
2022/05/11 14:42:03;;;;;;;14.15;5.95;;;29.00;46.40;;;;;;10941101;32;20027;-70
2022/05/11 14:48:12;;;;;;;12.45;5.55;;;29.00;47.40;;;;;;10940817;32;20027;-70
2022/05/11 14:54:14;;;;;;;8.85;5.90;;;28.90;48.80;;;;;;10939549;32;20027;-76
2022/05/11 15:06:41;;;;;;;10.75;4.85;;;28.80;49.50;;;;;;10940827;32;20390;-70
2022/05/11 15:19:04;;;;;;;11.00;6.40;;;28.90;50.10;;;;;;10947159;32;20030;-70
2022/05/11 15:25:11;;;;;;;13.90;5.43;;;28.90;50.20;;;;;;10942816;32;20027;-69
2022/05/11 15:31:13;;;;;;;9.43;5.25;;;28.80;50.30;;;;;;10933501;32;20027;-70
2022/05/11 15:37:15;;;;;;;7.25;5.00;;;28.90;50.10;;;;;;10924838;32;20043;-70
2022/05/11 15:43:18;;;;;;;11.12;4.80;;;29.00;50.00;;;;;;10917843;32;20057;-70
2022/05/11 15:49:37;;;;;;;7.95;5.18;;;29.20;50.00;;;;;;10930333;32;20043;-70
2022/05/11 15:55:39;;;;;;;10.02;5.10;;;29.20;50.20;;;;;;10930745;32;20032;-70
2022/05/11 16:01:42;;;;;;;16.52;5.32;;;29.30;50.10;;;;;;10928067;32;20446;-70
2022/05/11 16:07:45;;;;;;;9.02;5.07;;;29.30;50.00;;;;;;10942226;32;20069;-69
2022/05/11 16:13:49;;;;;;;8.18;4.97;;;29.30;49.90;;;;;;10907047;32;20058;-70
2022/05/11 16:20:03;;;;;;;27.50;5.78;;;29.30;50.00;;;;;;10903958;32;20015;-70
2022/05/11 16:26:06;;;;;;;10.55;4.75;;;29.30;50.10;;;;;;10909582;32;20031;-70
2022/05/11 16:32:11;;;;;;;9.85;5.68;;;29.30;50.50;;;;;;10904748;32;20027;-75
2022/05/11 16:38:13;;;;;;;10.23;3.65;;;29.30;50.50;;;;;;10906782;32;20065;-76
2022/05/11 16:44:16;;;;;;;7.70;4.45;;;29.30;50.90;;;;;;10905794;32;20085;-76
2022/05/11 16:50:20;;;;;;;11.88;6.50;;;29.20;51.30;;;;;;10906432;32;20027;-75
2022/05/11 16:56:22;;;;;;;10.52;4.70;;;29.10;51.20;;;;;;10906283;32;20311;-76
2022/05/11 17:02:24;;;;;;;8.90;4.43;;;29.00;51.30;;;;;;10933239;32;20070;-75
2022/05/11 17:08:26;;;;;;;9.77;4.57;;;29.10;51.00;;;;;;10943552;32;20019;-76
2022/05/11 17:14:29;;;;;;;6.32;4.37;;;29.10;50.90;;;;;;10528853;32;12013846;-75
2022/05/11 17:20:35;;;;;;;8.63;4.57;;;28.90;51.10;;;;;;10860759;32;20150;-74
2022/05/11 17:26:38;;;;;;;11.40;5.10;;;29.00;50.80;;;;;;10863934;32;20348;-75
2022/05/11 17:32:43;;;;;;;10.63;4.70;;;29.50;50.30;;;;;;10859613;32;20404;-75
2022/05/11 17:38:45;;;;;;;10.07;4.65;;;30.30;49.00;;;;;;10890475;32;20066;-75
2022/05/11 17:44:47;;;;;;;13.55;4.80;;;31.00;47.90;;;;;;10942583;32;20343;-75
2022/05/11 17:50:50;;;;;;;6.20;3.80;;;31.50;47.30;;;;;;10942108;32;20027;-71
2022/05/11 17:56:52;;;;;;;6.22;3.70;;;31.40;47.50;;;;;;10937694;32;20035;-71
2022/05/11 18:02:54;;;;;;;5.37;3.78;;;31.20;48.10;;;;;;10941049;32;20019;-70
2022/05/11 18:08:56;;;;;;;5.43;3.83;;;30.70;48.90;;;;;;10941943;32;20045;-70
2022/05/11 18:14:58;;;;;;;8.27;3.83;;;29.80;50.40;;;;;;10941869;32;20339;-71
2022/05/11 18:21:00;;;;;;;10.65;5.10;;;28.90;51.70;;;;;;10941755;32;20045;-70
2022/05/11 18:27:03;;;;;;;5.30;3.47;;;28.30;52.70;;;;;;10941319;32;20015;-70
2022/05/11 18:33:05;;;;;;;7.50;4.15;;;27.80;53.40;;;;;;10941349;32;20443;-70
2022/05/11 18:39:07;;;;;;;7.45;4.07;;;27.40;54.00;;;;;;10941404;32;20011;-70
2022/05/11 18:45:10;;;;;;;6.40;4.07;;;27.10;54.40;;;;;;10943808;32;20007;-69
2022/05/11 18:51:12;;;;;;;4.75;2.95;;;27.00;54.50;;;;;;10945390;32;20065;-70
2022/05/11 18:57:14;;;;;;;9.55;4.18;;;26.90;54.60;;;;;;10948109;32;20342;-70
2022/05/11 19:03:16;;;;;;;4.60;3.35;;;26.80;54.70;;;;;;10946027;32;20035;-70
2022/05/11 19:09:20;;;;;;;4.53;2.78;;;26.60;54.80;;;;;;10947706;32;20022;-70
2022/05/11 19:15:25;;;;;;;8.65;3.00;;;26.50;55.00;;;;;;10934257;32;20019;-70
2022/05/11 19:21:27;;;;;;;5.87;3.65;;;26.40;55.20;;;;;;10946655;32;20023;-69
2022/05/11 19:27:30;;;;;;;9.70;3.85;;;26.30;55.30;;;;;;10947052;32;20027;-69
2022/05/11 19:33:32;;;;;;;7.03;3.37;;;26.20;55.50;;;;;;10946835;32;20031;-70
2022/05/11 19:39:34;;;;;;;11.12;3.03;;;26.10;55.60;;;;;;10946818;32;20065;-69
2022/05/11 19:45:36;;;;;;;4.60;3.20;;;26.00;55.70;;;;;;10942099;32;20027;-69
2022/05/11 19:51:39;;;;;;;4.07;2.78;;;25.90;55.90;;;;;;10946193;32;20042;-69
2022/05/11 19:57:42;;;;;;;4.80;2.95;;;25.80;56.10;;;;;;10945019;32;20023;-69
2022/05/11 20:03:45;;;;;;;8.98;3.00;;;25.80;56.20;;;;;;10945921;32;20023;-69
2022/05/11 20:09:48;;;;;;;6.10;2.28;;;25.70;56.40;;;;;;10945086;32;20035;-69
2022/05/11 20:15:51;;;;;;;2.33;1.67;;;25.60;56.70;;;;;;10945538;32;20065;-73
2022/05/11 20:21:53;;;;;;;1.90;1.42;;;25.50;56.90;;;;;;10945289;32;20018;-73
2022/05/11 20:28:07;;;;;;;4.12;1.90;;;25.40;57.10;;;;;;10945158;32;20011;-73
2022/05/11 20:40:34;;;;;;;6.25;2.83;;;25.20;57.40;;;;;;10945683;32;20058;-73
2022/05/11 20:46:36;;;;;;;3.28;1.92;;;25.10;57.60;;;;;;10940839;32;20088;-75
2022/05/11 20:52:39;;;;;;;3.67;1.85;;;25.00;57.70;;;;;;10930757;32;20046;-74
2022/05/11 20:58:41;;;;;;;3.08;2.55;;;24.90;58.00;;;;;;10941035;32;20399;-73
2022/05/11 21:04:43;;;;;;;4.25;2.83;;;24.80;58.10;;;;;;10943806;32;20019;-73
2022/05/11 21:10:46;;;;;;;10.70;2.75;;;24.80;58.30;;;;;;10943306;32;20088;-73
2022/05/11 21:16:48;;;;;;;4.10;2.10;;;24.80;58.50;;;;;;10943222;32;20020;-73
2022/05/11 21:22:50;;;;;;;5.90;3.37;;;24.70;58.80;;;;;;10939069;32;20019;-73
2022/05/11 21:28:53;;;;;;;6.07;4.43;;;24.50;59.80;;;;;;10942898;32;20050;-74
2022/05/11 21:34:55;;;;;;;4.95;3.37;;;24.30;61.40;;;;;;10942473;32;20027;-70
2022/05/11 21:40:57;;;;;;;5.18;3.25;;;24.20;62.10;;;;;;10942502;32;20019;-70
2022/05/11 21:46:59;;;;;;;5.90;3.22;;;24.10;62.00;;;;;;10942432;32;20049;-70
2022/05/11 21:53:05;;;;;;;6.05;3.22;;;24.10;62.20;;;;;;10942105;32;20027;-69
2022/05/11 21:59:09;;;;;;;4.68;3.25;;;24.10;62.60;;;;;;10942080;32;20370;-70
2022/05/11 22:05:17;;;;;;;3.30;2.22;;;24.00;62.80;;;;;;10941853;32;20019;-70
2022/05/11 22:11:20;;;;;;;6.75;3.65;;;23.90;63.00;;;;;;10946788;27;20070;-70
2022/05/11 22:17:37;;;;;;;5.18;3.47;;;23.90;63.10;;;;;;10941576;32;20355;-70
2022/05/11 22:23:40;;;;;;;4.65;3.25;;;23.90;63.00;;;;;;10948765;32;20065;-70
2022/05/11 22:29:42;;;;;;;6.72;3.87;;;23.80;63.30;;;;;;10949192;32;20023;-70
2022/05/11 22:35:53;;;;;;;5.65;3.85;;;23.80;63.50;;;;;;10945260;32;20053;-70
2022/05/11 22:41:57;;;;;;;5.90;3.85;;;23.70;63.50;;;;;;10947856;32;20027;-70
2022/05/11 22:47:59;;;;;;;6.07;4.37;;;23.70;63.60;;;;;;10948510;32;20034;-70
2022/05/11 22:54:19;;;;;;;4.37;3.12;;;23.60;63.70;;;;;;10948308;32;20027;-70
2022/05/11 23:00:24;;;;;;;4.37;3.15;;;23.60;63.80;;;;;;10948125;32;20343;-70
2022/05/11 23:06:27;;;;;;;8.18;4.53;;;23.50;63.90;;;;;;10947908;32;20019;-70
2022/05/11 23:12:29;;;;;;;5.87;3.42;;;23.40;64.00;;;;;;10934223;32;20041;-70
2022/05/11 23:18:31;;;;;;;8.38;4.68;;;23.30;64.30;;;;;;10947473;32;20032;-70
2022/05/11 23:24:33;;;;;;;5.65;3.70;;;23.40;64.40;;;;;;10947142;32;20019;-70
2022/05/11 23:30:36;;;;;;;6.87;4.10;;;23.30;64.50;;;;;;10946893;32;20073;-70
2022/05/11 23:36:38;;;;;;;5.05;3.60;;;23.20;64.70;;;;;;10946796;32;20023;-70
2022/05/11 23:42:59;;;;;;;4.95;3.67;;;23.10;64.80;;;;;;10946727;32;20396;-70
2022/05/11 23:49:01;;;;;;;7.35;4.55;;;23.00;65.10;;;;;;10946489;32;20039;-70
2022/05/11 23:55:04;;;;;;;6.20;4.97;;;23.00;65.30;;;;;;10932673;32;20030;-69
